Agra Airport

Current Flights

Departures
Number Departure To Airline
 9I688 11:40  Jaipur  Alliance Air
 CD688 11:40  Jaipur  Alliance Air
 AI406 13:55  Khajuraho  Air India
Arrivals
Number Arrival From Airline
 9I687 11:15  Jaipur  Alliance Air
 AI406 13:20  Varanasi  Air India
 CD687 11:15  Jaipur  Alliance Air
 AI406 13:20  Varanasi  Air India
Info
Name: Agra Airport
Identifier:  AGR/VIAG
Local Time:  25. May 10:45
City
Flights per Day
2 flights
Distance: 285km (177mi)
Punctuality
94% (0 flights per day delayed)
Delay Average: 17 minutes
Current Weather
 34 C (Humidity: 38%)
  9kt (16km/h / 10mph) from 320°
  6km (3 mi.)
No significant changes expected

 SK
 METAR VIAG 250430Z 32009KT 6000 SKC 34/18 Q1007 NOSIG

Current Delays

Departures
N/A
Arrivals
N/A

Destinations

Top Destinations
Airport Flights
per week
Seats
per week
  Jaipur (JAI) 7 259 1 37
  Varanasi (VNS) <1 392 0 56
  Khajuraho (HJR) <1 350 0 50

Airlines & Planes

Top Airlines
Airline Flights
per Day
Seats
per Day
  Alliance Air 1 32
  Air India <1 107
  Alliance Airlines <1 4
Top Plane Types
Manufacturer Model Flights Seats
ATR 76-600 1.1/day 37/day 37.333333333333336
Airbus A319 0.8/day 107/day 107.4